createdAt,value
2022-12-01T00:01:12.693Z,103110.94
2022-12-01T00:03:41.812Z,103110.69
2022-12-01T00:06:16.872Z,103100.81
2022-12-01T00:09:03.618Z,103105.00
2022-12-01T00:11:30.085Z,103095.22
2022-12-01T00:13:56.495Z,103097.47
2022-12-01T00:16:22.987Z,103097.19
2022-12-01T00:18:51.682Z,103093.66
2022-12-01T00:21:19.954Z,103096.22
2022-12-01T00:23:47.840Z,103092.97
2022-12-01T00:26:15.599Z,103087.13
2022-12-01T00:28:42.456Z,103089.34
2022-12-01T00:31:12.718Z,103092.97
2022-12-01T00:33:40.057Z,103093.16
2022-12-01T00:36:07.443Z,103084.97
2022-12-01T00:38:34.731Z,103087.81
2022-12-01T00:41:02.765Z,103092.22
2022-12-01T00:43:29.513Z,103087.81
2022-12-01T00:45:57.901Z,103088.69
2022-12-01T00:48:24.434Z,103080.75
2022-12-01T00:50:54.984Z,103090.28
2022-12-01T00:53:21.779Z,103099.75
2022-12-01T00:55:48.347Z,103094.09
2022-12-01T00:58:14.928Z,103096.22
2022-12-01T01:00:42.993Z,103094.88
2022-12-01T01:03:10.618Z,103093.91
2022-12-01T01:05:42.823Z,103083.50
2022-12-01T01:08:11.848Z,103089.09
2022-12-01T01:10:43.650Z,103103.13
2022-12-01T01:13:11.439Z,103099.19
2022-12-01T01:15:38.446Z,103093.47
2022-12-01T01:18:05.730Z,103090.47
2022-12-01T01:20:32.998Z,103091.25
2022-12-01T01:22:59.448Z,103088.66
2022-12-01T01:25:26.144Z,103091.50
2022-12-01T01:27:52.630Z,103089.19
2022-12-01T01:30:19.273Z,103091.53
2022-12-01T01:32:45.713Z,103091.25
2022-12-01T01:35:12.243Z,103084.56
2022-12-01T01:37:38.654Z,103082.03
2022-12-01T01:40:05.928Z,103094.88
2022-12-01T01:42:32.329Z,103094.69
2022-12-01T01:44:59.263Z,103093.84
2022-12-01T01:47:30.744Z,103103.28
2022-12-01T01:50:05.223Z,103108.88
2022-12-01T01:52:33.524Z,103096.06
2022-12-01T01:55:00.733Z,103113.72
2022-12-01T01:57:30.743Z,103111.41
2022-12-01T02:00:23.484Z,103108.28
2022-12-01T02:02:50.555Z,103111.81
2022-12-01T02:05:26.787Z,103124.28
2022-12-01T02:07:56.592Z,103118.06
2022-12-01T02:10:41.767Z,103108.53
2022-12-01T02:13:55.718Z,103118.00
2022-12-01T02:16:41.143Z,103113.88
2022-12-01T02:19:32.368Z,103119.94
2022-12-01T02:22:30.246Z,103117.47
2022-12-01T02:25:19.390Z,103106.75
2022-12-01T02:28:30.336Z,103114.72
2022-12-01T02:31:02.987Z,103111.19
2022-12-01T02:33:49.502Z,103104.47
2022-12-01T02:36:35.002Z,103102.94
2022-12-01T02:39:10.813Z,103097.63
2022-12-01T02:41:45.304Z,103100.22
2022-12-01T02:44:20.173Z,103094.69
2022-12-01T02:47:00.642Z,103089.09
2022-12-01T02:49:33.541Z,103094.09
2022-12-01T02:52:00.816Z,103108.00
2022-12-01T02:54:31.095Z,103106.09
2022-12-01T02:56:57.511Z,103105.16
2022-12-01T02:59:23.961Z,103102.94
2022-12-01T03:02:03.979Z,103098.47
2022-12-01T03:04:36.012Z,103101.16
2022-12-01T03:07:05.508Z,103096.56
2022-12-01T03:09:37.991Z,103102.09
2022-12-01T03:12:23.671Z,103099.09
2022-12-01T03:15:04.508Z,103099.00
2022-12-01T03:17:43.522Z,103106.53
2022-12-01T03:20:19.498Z,103099.50
2022-12-01T03:22:55.955Z,103103.22
2022-12-01T03:25:26.313Z,103100.53
2022-12-01T03:28:20.346Z,103098.81
2022-12-01T03:30:45.260Z,103093.63
2022-12-01T03:33:21.012Z,103098.47
2022-12-01T03:36:03.203Z,103095.81
2022-12-01T03:38:31.872Z,103098.47
2022-12-01T03:41:03.872Z,103090.56
2022-12-01T03:43:36.760Z,103095.81
2022-12-01T03:46:10.743Z,103091.44
2022-12-01T03:48:39.112Z,103082.66
2022-12-01T03:51:14.605Z,103091.50
2022-12-01T03:53:55.141Z,103095.38
2022-12-01T03:56:26.147Z,103091.25
2022-12-01T03:58:56.737Z,103089.19
2022-12-01T04:01:23.521Z,103088.66
2022-12-01T04:03:49.939Z,103081.88
2022-12-01T04:06:16.364Z,103083.31
2022-12-01T04:08:42.863Z,103075.31
2022-12-01T04:11:32.447Z,103078.78
2022-12-01T04:13:59.334Z,103079.38
2022-12-01T04:16:25.785Z,103089.09
2022-12-01T04:18:52.221Z,103105.88
2022-12-01T04:21:18.649Z,103100.03
2022-12-01T04:24:00.239Z,103097.25
2022-12-01T04:26:32.806Z,103105.09
2022-12-01T04:29:00.679Z,103098.63
2022-12-01T04:31:27.516Z,103102.41
2022-12-01T04:33:55.889Z,103102.75
2022-12-01T04:36:23.290Z,103103.09
2022-12-01T04:38:49.880Z,103097.16
2022-12-01T04:41:16.372Z,103103.69
2022-12-01T04:43:42.858Z,103107.16
2022-12-01T04:46:09.611Z,103105.16
2022-12-01T04:48:37.302Z,103102.56
2022-12-01T04:51:05.519Z,103110.50
2022-12-01T04:53:32.318Z,103108.53
2022-12-01T04:56:02.318Z,103108.53
2022-12-01T04:58:30.051Z,103110.88
2022-12-01T05:01:05.071Z,103114.81
2022-12-01T05:03:31.564Z,103111.19
2022-12-01T05:06:06.139Z,103111.28
2022-12-01T05:08:33.000Z,103111.28
2022-12-01T05:10:59.627Z,103106.88
2022-12-01T05:13:26.387Z,103119.19
2022-12-01T05:15:53.244Z,103115.66
2022-12-01T05:18:19.736Z,103109.56
2022-12-01T05:20:58.438Z,103113.88
2022-12-01T05:23:32.953Z,103121.41
2022-12-01T05:25:59.798Z,103119.81
2022-12-01T05:28:26.844Z,103121.69
2022-12-01T05:30:54.432Z,103105.25
2022-12-01T05:33:22.215Z,103108.88
2022-12-01T05:35:49.922Z,103113.09
2022-12-01T05:38:16.430Z,103117.47
2022-12-01T05:40:43.135Z,103110.88
2022-12-01T05:43:09.513Z,103125.13
2022-12-01T05:45:35.972Z,103111.03
2022-12-01T05:48:02.828Z,103102.56
2022-12-01T05:50:30.395Z,103115.66
2022-12-01T05:52:56.929Z,103113.94
2022-12-01T05:55:23.687Z,103111.28
2022-12-01T05:57:50.197Z,103111.41
2022-12-01T06:00:17.171Z,103114.88
2022-12-01T06:02:43.734Z,103112.56
2022-12-01T06:05:10.567Z,103115.41
2022-12-01T06:07:40.021Z,103114.97
2022-12-01T06:10:09.159Z,103114.47
2022-12-01T06:12:36.244Z,103122.72
2022-12-01T06:15:06.671Z,103122.53
2022-12-01T06:17:37.076Z,103119.19
2022-12-01T06:20:07.219Z,103115.66
2022-12-01T06:22:33.649Z,103119.47
2022-12-01T06:25:00.107Z,103100.88
2022-12-01T06:27:26.515Z,103119.81
2022-12-01T06:29:53.304Z,103119.63
2022-12-01T06:32:19.991Z,103123.22
2022-12-01T06:34:46.434Z,103119.88
2022-12-01T06:37:15.516Z,103124.41
2022-12-01T06:39:42.995Z,103129.69
2022-12-01T06:42:09.510Z,103132.34
2022-12-01T06:44:35.937Z,103127.78
2022-12-01T06:47:02.329Z,103126.66
2022-12-01T06:49:28.730Z,103134.00
2022-12-01T06:51:55.204Z,103126.75
2022-12-01T06:54:21.767Z,103128.47
2022-12-01T06:56:48.199Z,103134.50
2022-12-01T06:59:14.830Z,103130.72
2022-12-01T07:01:41.743Z,103140.94
2022-12-01T07:04:08.255Z,103140.94
2022-12-01T07:06:34.673Z,103140.44
2022-12-01T07:09:01.059Z,103138.38
2022-12-01T07:11:27.481Z,103142.41
2022-12-01T07:13:56.951Z,103144.38
2022-12-01T07:16:23.518Z,103150.59
2022-12-01T07:18:50.128Z,103156.59
2022-12-01T07:21:17.066Z,103156.25
2022-12-01T07:23:43.485Z,103154.88
2022-12-01T07:26:12.905Z,103156.06
2022-12-01T07:28:39.336Z,103159.44
2022-12-01T07:31:11.879Z,103163.84
2022-12-01T07:33:38.758Z,103162.78
2022-12-01T07:36:06.044Z,103162.19
2022-12-01T07:38:34.543Z,103170.25
2022-12-01T07:41:08.258Z,103170.19
2022-12-01T07:43:35.381Z,103177.56
2022-12-01T07:46:08.943Z,103162.44
2022-12-01T07:48:39.957Z,103164.94
2022-12-01T07:51:11.669Z,103174.72
2022-12-01T07:53:38.292Z,103180.84
2022-12-01T07:56:08.595Z,103169.84
2022-12-01T07:58:35.945Z,103168.38
2022-12-01T08:01:14.727Z,103174.50
2022-12-01T08:03:42.430Z,103173.31
2022-12-01T08:06:09.744Z,103179.84
2022-12-01T08:08:38.354Z,103179.03
2022-12-01T08:11:08.307Z,103173.97
2022-12-01T08:13:34.792Z,103171.41
2022-12-01T08:16:06.140Z,103179.16
2022-12-01T08:18:36.563Z,103181.97
2022-12-01T08:21:03.762Z,103181.38
2022-12-01T08:23:30.585Z,103181.91
2022-12-01T08:26:02.099Z,103175.38
2022-12-01T08:28:28.680Z,103183.53
2022-12-01T08:30:55.726Z,103200.16
2022-12-01T08:33:22.353Z,103187.91
2022-12-01T08:35:48.777Z,103188.69
2022-12-01T08:38:15.834Z,103200.16
2022-12-01T08:40:42.256Z,103191.03
2022-12-01T08:43:12.331Z,103196.19
2022-12-01T08:45:45.171Z,103198.44
2022-12-01T08:48:11.568Z,103197.91
2022-12-01T08:50:37.966Z,103197.31
2022-12-01T08:53:04.512Z,103197.22
2022-12-01T08:55:30.898Z,103196.03
2022-12-01T08:57:57.470Z,103191.56
2022-12-01T09:00:23.880Z,103192.56
2022-12-01T09:02:50.339Z,103196.38
2022-12-01T09:05:16.907Z,103198.84
2022-12-01T09:07:45.555Z,103201.66
2022-12-01T09:10:12.092Z,103190.97
2022-12-01T09:12:38.476Z,103191.03
2022-12-01T09:15:05.384Z,103186.56
2022-12-01T09:17:31.766Z,103193.75
2022-12-01T09:19:58.169Z,103196.22
2022-12-01T09:22:24.565Z,103186.50
2022-12-01T09:24:50.989Z,103189.34
2022-12-01T09:27:17.386Z,103201.16
2022-12-01T09:29:43.812Z,103191.44
2022-12-01T09:32:10.245Z,103191.16
2022-12-01T09:34:36.644Z,103193.03
2022-12-01T09:37:03.281Z,103185.97
2022-12-01T09:39:29.861Z,103196.06
2022-12-01T09:42:08.392Z,103193.81
2022-12-01T09:44:45.443Z,103192.44
2022-12-01T09:47:21.599Z,103202.97
2022-12-01T09:50:03.104Z,103198.66
2022-12-01T09:52:44.754Z,103194.69
2022-12-01T09:55:19.483Z,103190.22
2022-12-01T09:57:54.185Z,103192.19
2022-12-01T10:00:23.776Z,103178.69
2022-12-01T10:02:59.970Z,103182.78
2022-12-01T10:05:33.260Z,103180.06
2022-12-01T10:08:04.776Z,103184.69
2022-12-01T10:10:36.373Z,103176.09
2022-12-01T10:13:02.922Z,103173.59
2022-12-01T10:15:39.375Z,103174.34
2022-12-01T10:18:45.737Z,103183.13
2022-12-01T10:21:41.586Z,103170.81
2022-12-01T10:24:17.648Z,103172.19
2022-12-01T10:27:08.756Z,103172.63
2022-12-01T10:29:47.751Z,103164.38
2022-12-01T10:32:38.567Z,103172.97
2022-12-01T10:35:05.142Z,103173.47
2022-12-01T10:37:31.800Z,103172.25
2022-12-01T10:39:58.651Z,103172.03
2022-12-01T10:42:34.193Z,103176.38
2022-12-01T10:45:03.354Z,103166.25
2022-12-01T10:47:31.416Z,103169.16
2022-12-01T10:49:58.523Z,103165.25
2022-12-01T10:52:41.695Z,103161.56
2022-12-01T10:55:23.225Z,103151.06
2022-12-01T10:57:50.443Z,103165.25
2022-12-01T11:03:22.037Z,103155.44
2022-12-01T11:05:53.195Z,103157.75
2022-12-01T11:08:30.176Z,103153.78
2022-12-01T11:10:56.836Z,103157.75
2022-12-01T11:13:32.740Z,103149.22
2022-12-01T11:16:02.481Z,103152.41
2022-12-01T11:18:33.611Z,103153.34
2022-12-01T11:21:06.187Z,103149.81
2022-12-01T11:23:35.920Z,103140.00
2022-12-01T11:26:09.253Z,103148.00
2022-12-01T11:28:40.376Z,103136.19
2022-12-01T11:31:09.931Z,103132.38
2022-12-01T11:33:51.277Z,103130.75
2022-12-01T11:36:44.031Z,103132.97
2022-12-01T11:39:23.877Z,103133.88
2022-12-01T11:41:55.636Z,103131.06
2022-12-01T11:44:43.586Z,103128.47
2022-12-01T11:47:23.305Z,103122.41
2022-12-01T11:50:02.394Z,103124.28
2022-12-01T11:52:33.057Z,103122.09
2022-12-01T11:55:20.894Z,103126.69
2022-12-01T11:57:52.187Z,103121.38
2022-12-01T12:00:28.016Z,103122.50
2022-12-01T12:03:14.115Z,103118.69
2022-12-01T12:06:32.369Z,103118.78
2022-12-01T12:09:20.385Z,103118.47
2022-12-01T12:11:57.625Z,103117.28
2022-12-01T12:14:47.434Z,103113.38
2022-12-01T12:17:58.493Z,103120.38
2022-12-01T12:20:40.958Z,103114.00
2022-12-01T12:23:27.455Z,103111.78
2022-12-01T12:25:59.615Z,103106.16
2022-12-01T12:28:37.717Z,103102.47
2022-12-01T12:31:06.926Z,103104.19
2022-12-01T12:34:00.559Z,103104.34
2022-12-01T12:36:50.859Z,103100.44
2022-12-01T12:39:42.432Z,103105.13
2022-12-01T12:42:33.192Z,103097.66
2022-12-01T12:45:16.126Z,103093.38
2022-12-01T12:48:13.474Z,103100.56
2022-12-01T12:51:15.772Z,103095.59
2022-12-01T12:53:51.345Z,103096.50
2022-12-01T12:56:21.950Z,103094.09
2022-12-01T12:59:14.674Z,103099.47
2022-12-01T13:01:47.028Z,103083.47
2022-12-01T13:04:25.160Z,103094.09
2022-12-01T13:07:00.517Z,103091.69
2022-12-01T13:09:35.530Z,103090.06
2022-12-01T13:12:09.090Z,103084.28
2022-12-01T13:14:40.941Z,103095.22
2022-12-01T13:17:20.197Z,103105.50
2022-12-01T13:19:48.211Z,103096.72
2022-12-01T13:22:17.909Z,103105.50
2022-12-01T13:24:44.715Z,103101.91
2022-12-01T13:27:11.042Z,103103.88
2022-12-01T13:29:47.503Z,103097.22
2022-12-01T13:32:31.587Z,103097.66
2022-12-01T13:34:59.768Z,103098.94
2022-12-01T13:37:29.631Z,103097.75
2022-12-01T13:40:08.034Z,103099.47
2022-12-01T13:42:35.265Z,103093.09
2022-12-01T13:45:09.929Z,103096.72
2022-12-01T13:47:55.815Z,103098.59
2022-12-01T13:50:43.094Z,103091.94
2022-12-01T13:53:20.293Z,103082.34
2022-12-01T13:56:00.287Z,103077.63
2022-12-01T13:58:32.929Z,103100.03
2022-12-01T14:01:18.237Z,103099.09
2022-12-01T14:04:03.623Z,103095.97
2022-12-01T14:06:35.870Z,103105.88
2022-12-01T14:09:14.626Z,103097.09
2022-12-01T14:11:42.548Z,103108.16
2022-12-01T14:14:08.884Z,103109.47
2022-12-01T14:16:47.932Z,103106.31
2022-12-01T14:19:39.324Z,103099.16
2022-12-01T14:22:07.524Z,103112.69
2022-12-01T14:24:41.428Z,103114.81
2022-12-01T14:27:11.801Z,103125.16
2022-12-01T14:29:43.038Z,103124.03
2022-12-01T14:32:09.364Z,103118.34
2022-12-01T14:34:39.431Z,103115.44
2022-12-01T14:37:16.052Z,103118.88
2022-12-01T14:40:13.016Z,103110.50
2022-12-01T14:43:05.800Z,103112.91
2022-12-01T14:45:47.262Z,103108.78
2022-12-01T14:48:18.620Z,103107.94
2022-12-01T14:51:07.897Z,103108.28
2022-12-01T14:53:38.928Z,103099.84
2022-12-01T14:56:13.159Z,103103.66
2022-12-01T14:58:51.206Z,103094.94
2022-12-01T15:01:17.961Z,103085.69
2022-12-01T15:03:50.618Z,103099.19
2022-12-01T15:06:25.327Z,103089.19
2022-12-01T15:09:33.675Z,103085.41
2022-12-01T15:12:03.887Z,103080.41
2022-12-01T15:14:48.346Z,103087.13
2022-12-01T15:17:34.593Z,103092.03
2022-12-01T15:20:01.335Z,103090.47
2022-12-01T15:22:31.477Z,103094.00
2022-12-01T15:25:13.120Z,103092.22
2022-12-01T15:27:39.692Z,103097.88
2022-12-01T15:30:07.734Z,103096.31
2022-12-01T15:32:38.012Z,103090.22
2022-12-01T15:35:05.628Z,103097.78
2022-12-01T15:37:42.571Z,103098.97
2022-12-01T15:43:06.014Z,103101.41
2022-12-01T15:45:45.898Z,103101.56
2022-12-01T15:48:25.912Z,103106.28
2022-12-01T15:51:12.216Z,103108.78
2022-12-01T15:53:45.365Z,103103.78
2022-12-01T15:56:12.432Z,103093.72
2022-12-01T15:58:47.547Z,103112.22
2022-12-01T16:01:19.619Z,103112.03
2022-12-01T16:03:50.083Z,103115.56
2022-12-01T16:06:17.837Z,103123.94
2022-12-01T16:08:57.016Z,103124.75
2022-12-01T16:11:23.842Z,103124.34
2022-12-01T16:14:01.155Z,103127.66
2022-12-01T16:16:34.499Z,103134.50
2022-12-01T16:19:02.401Z,103123.13
2022-12-01T16:21:32.950Z,103127.28
2022-12-01T16:24:01.773Z,103119.50
2022-12-01T16:26:29.444Z,103109.53
2022-12-01T16:28:56.947Z,103111.78
2022-12-01T16:31:26.081Z,103115.53
2022-12-01T16:34:13.856Z,103116.91
2022-12-01T16:36:45.143Z,103114.00
2022-12-01T16:39:13.989Z,103103.84
2022-12-01T16:41:44.590Z,103111.94
2022-12-01T16:44:28.091Z,103120.81
2022-12-01T16:46:55.234Z,103112.44
2022-12-01T16:49:22.169Z,103109.00
2022-12-01T16:51:57.145Z,103111.72
2022-12-01T16:54:24.086Z,103112.13
2022-12-01T16:56:50.973Z,103118.13
2022-12-01T16:59:17.433Z,103108.75
2022-12-01T17:01:43.916Z,103115.00
2022-12-01T17:04:10.352Z,103121.84
2022-12-01T17:06:38.390Z,103120.72
2022-12-01T17:09:05.737Z,103123.19
2022-12-01T17:11:32.596Z,103112.56
2022-12-01T17:13:59.158Z,103113.09
2022-12-01T17:16:25.642Z,103118.41
2022-12-01T17:18:52.179Z,103118.84
2022-12-01T17:21:18.683Z,103116.63
2022-12-01T17:23:45.093Z,103115.22
2022-12-01T17:26:14.683Z,103114.59
2022-12-01T17:28:41.551Z,103119.25
2022-12-01T17:31:08.597Z,103127.44
2022-12-01T17:33:36.014Z,103124.38
2022-12-01T17:36:05.283Z,103127.78
2022-12-01T17:38:34.993Z,103127.44
2022-12-01T17:41:04.203Z,103128.31
2022-12-01T17:43:30.622Z,103130.09
2022-12-01T17:45:57.122Z,103127.59
2022-12-01T17:48:23.535Z,103133.47
2022-12-01T17:50:50.123Z,103133.72
2022-12-01T17:53:16.573Z,103124.31
2022-12-01T17:55:42.959Z,103126.38
2022-12-01T17:58:09.350Z,103129.50
2022-12-01T18:00:35.818Z,103144.06
2022-12-01T18:03:02.305Z,103126.28
2022-12-01T18:05:29.491Z,103136.72
2022-12-01T18:07:56.007Z,103124.50
2022-12-01T18:10:22.440Z,103144.41
2022-12-01T18:12:48.891Z,103141.41
2022-12-01T18:15:17.176Z,103139.94
2022-12-01T18:17:43.594Z,103145.00
2022-12-01T18:20:10.301Z,103152.13
2022-12-01T18:22:36.722Z,103153.31
2022-12-01T18:25:03.622Z,103139.38
2022-12-01T18:27:30.037Z,103153.38
2022-12-01T18:29:56.529Z,103156.91
2022-12-01T18:32:22.913Z,103153.63
2022-12-01T18:34:49.593Z,103148.00
2022-12-01T18:37:16.271Z,103148.75
2022-12-01T18:39:42.689Z,103151.84
2022-12-01T18:42:09.079Z,103150.66
2022-12-01T18:44:35.481Z,103148.75
2022-12-01T18:47:03.711Z,103149.56
2022-12-01T18:49:30.231Z,103144.41
2022-12-01T18:51:57.297Z,103142.03
2022-12-01T18:54:23.686Z,103144.56
2022-12-01T18:56:53.271Z,103143.63
2022-12-01T18:59:19.748Z,103140.78
2022-12-01T19:01:48.555Z,103145.97
2022-12-01T19:04:16.494Z,103139.22
2022-12-01T19:06:44.702Z,103149.63
2022-12-01T19:09:12.963Z,103143.75
2022-12-01T19:11:40.772Z,103146.03
2022-12-01T19:14:10.129Z,103152.53
2022-12-01T19:16:36.551Z,103142.06
2022-12-01T19:19:03.196Z,103150.13
2022-12-01T19:21:29.596Z,103138.69
2022-12-01T19:23:56.250Z,103144.25
2022-12-01T19:26:23.133Z,103142.75
2022-12-01T19:28:49.832Z,103133.28
2022-12-01T19:31:23.462Z,103146.28
2022-12-01T19:33:50.579Z,103147.84
2022-12-01T19:36:19.392Z,103134.91
2022-12-01T19:38:45.951Z,103144.25
2022-12-01T19:41:13.859Z,103143.19
2022-12-01T19:43:40.514Z,103145.34
2022-12-01T19:46:08.650Z,103141.81
2022-12-01T19:48:35.416Z,103136.63
2022-12-01T19:51:02.115Z,103146.97
2022-12-01T19:53:33.258Z,103138.75
2022-12-01T19:56:04.867Z,103151.03
2022-12-01T19:58:34.613Z,103146.50
2022-12-01T20:01:10.062Z,103145.97
2022-12-01T20:03:38.087Z,103149.69
2022-12-01T20:06:10.061Z,103145.97
2022-12-01T20:08:36.806Z,103147.19
2022-12-01T20:11:04.526Z,103141.88
2022-12-01T20:13:32.931Z,103140.47
2022-12-01T20:16:14.308Z,103136.00
2022-12-01T20:18:42.037Z,103137.31
2022-12-01T20:21:16.363Z,103134.94
2022-12-01T20:23:44.516Z,103144.94
2022-12-01T20:26:11.696Z,103140.50
2022-12-01T20:28:39.704Z,103139.06
2022-12-01T20:31:24.343Z,103138.19
2022-12-01T20:33:52.514Z,103135.84
2022-12-01T20:36:19.227Z,103131.44
2022-12-01T20:38:45.739Z,103132.59
2022-12-01T20:41:12.835Z,103135.34
2022-12-01T20:43:39.944Z,103126.72
2022-12-01T20:46:07.164Z,103143.41
2022-12-01T20:48:34.009Z,103150.16
2022-12-01T20:51:01.931Z,103133.34
2022-12-01T20:53:28.382Z,103128.41
2022-12-01T20:55:55.552Z,103145.91
2022-12-01T20:58:22.133Z,103150.28
2022-12-01T21:00:48.975Z,103143.13
2022-12-01T21:03:15.388Z,103134.63
2022-12-01T21:05:43.340Z,103125.97
2022-12-01T21:08:12.129Z,103128.63
2022-12-01T21:10:40.613Z,103115.34
2022-12-01T21:13:39.068Z,103130.63
2022-12-01T21:16:14.045Z,103121.06
2022-12-01T21:18:52.666Z,103117.13
2022-12-01T21:21:30.703Z,103123.78
2022-12-01T21:24:20.600Z,103130.41
2022-12-01T21:26:50.134Z,103122.94
2022-12-01T21:29:21.247Z,103123.72
2022-12-01T21:31:50.607Z,103121.28
2022-12-01T21:34:25.132Z,103121.41
2022-12-01T21:36:54.420Z,103113.38
2022-12-01T21:39:23.008Z,103107.19
2022-12-01T21:41:51.769Z,103114.53
2022-12-01T21:44:20.234Z,103111.88
2022-12-01T21:46:47.911Z,103109.22
2022-12-01T21:49:30.773Z,103106.03
2022-12-01T21:51:58.445Z,103105.22
2022-12-01T21:54:24.855Z,103109.66
2022-12-01T21:56:57.090Z,103115.09
2022-12-01T21:59:24.471Z,103125.88
2022-12-01T22:01:54.279Z,103124.09
2022-12-01T22:04:28.791Z,103123.22
2022-12-01T22:06:57.038Z,103119.88
2022-12-01T22:09:26.429Z,103124.00
2022-12-01T22:12:28.696Z,103125.00
2022-12-01T22:15:02.067Z,103121.72
2022-12-01T22:17:29.780Z,103120.34
2022-12-01T22:19:59.800Z,103116.19
2022-12-01T22:22:30.491Z,103119.53
2022-12-01T22:25:01.796Z,103119.31
2022-12-01T22:27:29.782Z,103110.81
2022-12-01T22:30:05.331Z,103106.19
2022-12-01T22:32:34.724Z,103113.25
2022-12-01T22:35:23.649Z,103093.84
2022-12-01T22:37:54.676Z,103108.06
2022-12-01T22:40:38.062Z,103097.50
2022-12-01T22:43:16.266Z,103098.75
2022-12-01T22:46:17.899Z,103100.44
2022-12-01T22:48:58.799Z,103102.63
2022-12-01T22:51:26.725Z,103091.84
2022-12-01T22:54:16.976Z,103105.63
2022-12-01T22:56:46.459Z,103104.94
2022-12-01T22:59:18.635Z,103104.47
2022-12-01T23:01:48.141Z,103094.22
2022-12-01T23:04:26.659Z,103094.38
2022-12-01T23:06:58.283Z,103090.78
2022-12-01T23:09:44.270Z,103091.56
2022-12-01T23:12:10.625Z,103095.00
2022-12-01T23:14:43.615Z,103096.88
2022-12-01T23:17:24.349Z,103091.28
2022-12-01T23:19:52.788Z,103084.44
2022-12-01T23:22:19.969Z,103084.22
2022-12-01T23:24:46.414Z,103087.75
2022-12-01T23:27:16.076Z,103086.06
2022-12-01T23:29:42.531Z,103072.66
2022-12-01T23:32:10.543Z,103070.75
2022-12-01T23:34:37.072Z,103068.69
2022-12-01T23:37:03.479Z,103074.75
2022-12-01T23:39:35.044Z,103079.66
2022-12-01T23:42:02.618Z,103077.06
2022-12-01T23:44:45.425Z,103082.53
2022-12-01T23:47:24.815Z,103070.81
2022-12-01T23:50:03.702Z,103070.53
2022-12-01T23:52:34.098Z,103064.34
2022-12-01T23:55:01.162Z,103068.16
2022-12-01T23:57:27.878Z,103058.13
